Time;durP1;ratioP1;P1;durP2;ratioP2;P2;SDS_P1;SDS_P2;PMS_P1;PMS_P2;Temp;Humidity;BMP_temperature;BMP_pressure;BME280_temperature;BME280_humidity;BME280_pressure;Samples;Min_cycle;Max_cycle;Signal;HPM_P1;HPM_P2
2024/02/25 00:01:55;;;;;;;1.50;0.97;;;19.30;58.30;;;;;;5096291;28;20554;-80
2024/02/25 00:04:22;;;;;;;1.50;0.80;;;19.30;58.30;;;;;;5096574;28;20431;-80
2024/02/25 00:06:50;;;;;;;1.60;0.90;;;19.30;58.30;;;;;;5096388;28;20435;-80
2024/02/25 00:09:17;;;;;;;1.40;0.80;;;19.40;58.40;;;;;;5100459;28;20435;-80
2024/02/25 00:11:44;;;;;;;1.50;0.80;;;19.30;58.30;;;;;;5101334;28;20538;-80
2024/02/25 00:14:11;;;;;;;1.50;0.80;;;19.30;58.40;;;;;;5099688;28;20522;-81
2024/02/25 00:16:37;;;;;;;1.70;0.90;;;19.30;58.30;;;;;;5096190;28;20435;-80
2024/02/25 00:19:03;;;;;;;1.43;0.80;;;19.30;58.90;;;;;;5096101;28;20446;-80
2024/02/25 00:21:30;;;;;;;1.40;0.70;;;19.30;58.30;;;;;;5096025;28;20254;-80
2024/02/25 00:23:58;;;;;;;1.40;0.77;;;19.30;58.30;;;;;;5095950;28;20446;-80
2024/02/25 00:26:26;;;;;;;1.53;0.83;;;19.30;58.40;;;;;;5096050;28;20433;-80
2024/02/25 00:28:53;;;;;;;1.50;0.80;;;19.30;58.40;;;;;;5095849;28;20625;-80
2024/02/25 00:31:20;;;;;;;1.80;0.80;;;19.30;58.30;;;;;;5095468;28;20497;-80
2024/02/25 00:33:47;;;;;;;1.53;0.80;;;19.30;58.30;;;;;;5095708;28;20999;-80
2024/02/25 00:36:14;;;;;;;1.50;0.70;;;19.30;58.30;;;;;;5095732;28;20791;-81
2024/02/25 00:38:41;;;;;;;1.50;0.90;;;19.30;58.30;;;;;;5095566;28;20439;-81
2024/02/25 00:41:09;;;;;;;1.93;0.83;;;19.30;58.30;;;;;;5095809;28;20436;-81
2024/02/25 00:43:35;;;;;;;1.40;0.80;;;19.30;58.30;;;;;;5095646;28;20466;-81
2024/02/25 00:46:02;;;;;;;2.00;0.70;;;19.30;58.30;;;;;;5095592;28;20438;-81
2024/02/25 00:48:30;;;;;;;1.43;0.83;;;19.30;58.30;;;;;;5095513;28;20543;-81
2024/02/25 00:50:57;;;;;;;1.67;0.90;;;19.30;58.30;;;;;;5095272;28;20483;-81
2024/02/25 00:53:24;;;;;;;1.50;0.80;;;19.30;58.30;;;;;;5095447;28;20446;-81
2024/02/25 00:55:51;;;;;;;1.73;0.80;;;19.30;58.30;;;;;;5095413;28;20439;-81
2024/02/25 00:58:19;;;;;;;1.40;0.70;;;19.30;58.40;;;;;;5095236;28;20435;-81
2024/02/25 01:00:46;;;;;;;1.50;0.77;;;19.30;58.40;;;;;;5095458;28;20431;-81
2024/02/25 01:03:12;;;;;;;1.50;0.80;;;19.20;58.30;;;;;;5094823;28;20436;-81
2024/02/25 01:05:39;;;;;;;1.80;0.80;;;19.30;58.40;;;;;;5095117;28;20440;-80
2024/02/25 01:08:08;;;;;;;1.50;0.77;;;19.30;58.40;;;;;;5095100;28;20438;-80
2024/02/25 01:10:35;;;;;;;1.80;0.87;;;19.30;58.40;;;;;;5094860;28;20482;-80
2024/02/25 01:13:02;;;;;;;1.80;0.90;;;19.20;58.30;;;;;;5094930;28;20958;-80
2024/02/25 01:15:30;;;;;;;1.50;0.80;;;19.30;58.40;;;;;;5094860;28;20531;-80
2024/02/25 01:17:57;;;;;;;1.50;0.73;;;19.30;58.40;;;;;;5094991;28;20431;-80
2024/02/25 01:20:23;;;;;;;1.40;0.70;;;19.20;58.30;;;;;;5094860;28;20440;-80
2024/02/25 01:22:50;;;;;;;1.57;0.87;;;19.20;58.30;;;;;;5094751;28;20435;-80
2024/02/25 01:25:17;;;;;;;1.40;0.70;;;19.20;58.30;;;;;;5094821;28;20450;-80
2024/02/25 01:27:44;;;;;;;1.50;0.70;;;19.30;58.40;;;;;;5094711;28;20954;-80
2024/02/25 01:30:14;;;;;;;1.50;0.83;;;19.20;58.30;;;;;;5094328;28;20486;-80
2024/02/25 01:32:42;;;;;;;1.40;0.70;;;19.20;58.30;;;;;;5094631;28;20459;-80
2024/02/25 01:35:12;;;;;;;1.50;0.90;;;19.20;58.30;;;;;;5094690;28;20649;-80
2024/02/25 01:37:39;;;;;;;1.70;0.87;;;19.20;58.30;;;;;;5094630;28;20442;-80
2024/02/25 01:40:07;;;;;;;1.30;0.70;;;19.20;58.30;;;;;;5094470;28;20486;-80
2024/02/25 01:42:35;;;;;;;1.50;0.80;;;19.20;58.30;;;;;;5094416;28;20514;-81
2024/02/25 01:45:02;;;;;;;1.30;0.70;;;19.20;58.30;;;;;;5094357;28;20505;-80
2024/02/25 01:47:30;;;;;;;1.40;0.80;;;19.20;58.30;;;;;;5094163;28;20436;-79
2024/02/25 01:49:58;;;;;;;1.37;0.73;;;19.20;58.30;;;;;;5094184;28;20475;-79
2024/02/25 01:52:26;;;;;;;1.40;0.70;;;19.20;58.30;;;;;;5094508;28;20443;-79
2024/02/25 01:54:53;;;;;;;1.40;0.70;;;19.20;58.30;;;;;;5094203;28;20509;-79
2024/02/25 01:57:21;;;;;;;1.50;0.90;;;19.20;58.30;;;;;;5094194;28;20438;-79
2024/02/25 01:59:48;;;;;;;1.40;0.80;;;19.20;58.30;;;;;;5094019;28;20531;-80
2024/02/25 02:02:15;;;;;;;1.40;0.70;;;19.20;58.30;;;;;;5093945;28;20546;-80
2024/02/25 02:04:43;;;;;;;1.40;0.70;;;19.20;58.90;;;;;;5094049;28;20440;-80
2024/02/25 02:07:14;;;;;;;1.40;0.70;;;19.20;58.30;;;;;;5094040;28;20438;-80
2024/02/25 02:09:42;;;;;;;2.80;0.80;;;19.20;58.30;;;;;;5094122;28;20515;-80
2024/02/25 02:12:09;;;;;;;1.50;0.80;;;19.20;58.30;;;;;;5093976;28;20431;-80
2024/02/25 02:14:35;;;;;;;1.73;0.90;;;19.20;58.30;;;;;;5093241;28;20530;-80
2024/02/25 02:17:03;;;;;;;1.50;0.80;;;19.20;58.30;;;;;;5093994;28;20526;-80
2024/02/25 02:19:30;;;;;;;1.40;0.80;;;19.20;58.30;;;;;;5093756;28;20465;-80
2024/02/25 02:21:58;;;;;;;1.50;0.87;;;19.20;59.00;;;;;;5093345;28;20446;-81
2024/02/25 02:24:25;;;;;;;1.50;0.70;;;19.20;58.30;;;;;;5093746;28;20434;-81
2024/02/25 02:26:52;;;;;;;1.50;0.73;;;19.20;58.30;;;;;;5093676;28;20432;-80
2024/02/25 02:29:19;;;;;;;1.50;0.90;;;19.20;58.40;;;;;;5093363;28;20442;-81
2024/02/25 02:31:45;;;;;;;1.40;0.70;;;19.20;58.30;;;;;;5093407;28;20508;-81
2024/02/25 02:34:12;;;;;;;1.40;0.70;;;19.20;58.30;;;;;;5093543;28;20944;-82
2024/02/25 02:36:40;;;;;;;1.70;0.80;;;19.20;58.30;;;;;;5093744;28;20466;-81
2024/02/25 02:39:08;;;;;;;1.70;0.80;;;19.30;58.50;;;;;;5093633;28;20797;-87
2024/02/25 02:41:35;;;;;;;1.37;0.73;;;19.20;58.30;;;;;;5093418;28;20801;-79
2024/02/25 02:44:02;;;;;;;1.40;0.70;;;19.20;58.30;;;;;;5093833;28;20435;-79
2024/02/25 02:46:29;;;;;;;1.47;0.83;;;19.20;58.30;;;;;;5093642;28;20436;-81
2024/02/25 02:48:56;;;;;;;1.40;0.70;;;19.20;58.30;;;;;;5093566;28;20524;-82
2024/02/25 02:51:23;;;;;;;1.40;0.70;;;19.20;58.40;;;;;;5093231;28;21003;-81
2024/02/25 02:53:49;;;;;;;1.40;0.70;;;19.20;58.40;;;;;;5093279;28;20447;-81
2024/02/25 02:56:18;;;;;;;1.70;0.70;;;19.10;58.30;;;;;;5093355;28;20436;-81
2024/02/25 02:58:48;;;;;;;2.17;0.90;;;19.20;58.40;;;;;;5095185;28;20527;-80
2024/02/25 03:01:15;;;;;;;1.50;0.73;;;19.20;58.40;;;;;;5097650;28;20456;-78
2024/02/25 03:03:42;;;;;;;1.40;0.70;;;19.10;58.30;;;;;;5102203;28;20510;-79
2024/02/25 03:06:09;;;;;;;1.40;0.70;;;19.20;58.40;;;;;;5097659;28;20499;-89
2024/02/25 03:08:38;;;;;;;1.40;0.70;;;19.20;58.30;;;;;;5093423;28;20788;-80
2024/02/25 03:11:04;;;;;;;1.60;0.80;;;19.10;58.30;;;;;;5093150;28;20479;-80
2024/02/25 03:13:33;;;;;;;1.40;0.70;;;19.20;59.00;;;;;;5093534;28;20435;-80
2024/02/25 03:16:01;;;;;;;1.40;0.70;;;19.10;58.30;;;;;;5093457;28;20442;-80
2024/02/25 03:18:27;;;;;;;1.50;0.80;;;19.10;58.30;;;;;;5093347;28;20431;-81
2024/02/25 03:20:54;;;;;;;1.50;0.80;;;19.10;58.30;;;;;;5092966;28;20435;-80
2024/02/25 03:23:21;;;;;;;1.60;0.90;;;19.10;58.30;;;;;;5092905;28;20458;-80
2024/02/25 03:25:48;;;;;;;1.60;0.90;;;19.10;58.30;;;;;;5094953;28;20431;-80
2024/02/25 03:28:14;;;;;;;1.47;0.80;;;19.10;58.30;;;;;;5097081;28;20442;-80
2024/02/25 03:30:43;;;;;;;1.40;0.70;;;19.10;58.30;;;;;;5096836;28;20483;-80
2024/02/25 03:33:09;;;;;;;1.40;0.70;;;19.10;58.30;;;;;;5096866;28;20794;-80
2024/02/25 03:35:36;;;;;;;1.50;0.80;;;19.10;58.90;;;;;;5096893;28;20470;-80
2024/02/25 03:38:03;;;;;;;1.60;0.80;;;19.20;58.40;;;;;;5097171;28;20469;-80
2024/02/25 03:40:30;;;;;;;1.50;0.80;;;19.10;58.30;;;;;;5096757;28;20436;-80
2024/02/25 03:42:57;;;;;;;1.50;0.80;;;19.10;58.30;;;;;;5096874;28;20442;-80
2024/02/25 03:45:23;;;;;;;1.40;0.80;;;19.10;58.30;;;;;;5096785;28;21018;-81
2024/02/25 03:47:51;;;;;;;1.60;0.80;;;19.10;58.30;;;;;;5096597;28;20438;-79
2024/02/25 03:50:18;;;;;;;1.70;0.90;;;19.10;58.30;;;;;;5096593;28;20447;-80
2024/02/25 03:52:45;;;;;;;1.60;0.70;;;19.10;58.30;;;;;;5096615;28;20914;-80
2024/02/25 03:55:12;;;;;;;1.50;0.80;;;19.10;58.30;;;;;;5096603;28;20534;-80
2024/02/25 03:57:39;;;;;;;1.87;0.93;;;19.10;58.30;;;;;;5096582;28;20804;-81
2024/02/25 04:00:08;;;;;;;2.33;0.70;;;19.10;58.30;;;;;;5096591;28;20427;-79
2024/02/25 04:02:34;;;;;;;1.50;0.87;;;19.10;58.30;;;;;;5096446;28;21022;-89
2024/02/25 04:05:03;;;;;;;1.57;1.00;;;19.10;58.30;;;;;;5096302;28;20434;-80
2024/02/25 04:07:29;;;;;;;2.47;0.90;;;19.10;58.30;;;;;;5096595;28;20952;-80
2024/02/25 04:09:56;;;;;;;1.50;0.80;;;19.10;58.30;;;;;;5096452;28;20439;-85
2024/02/25 04:12:23;;;;;;;1.60;0.90;;;19.10;58.30;;;;;;5096188;28;20483;-80
2024/02/25 04:14:50;;;;;;;1.77;0.90;;;19.10;58.30;;;;;;5096392;28;20435;-80
2024/02/25 04:17:18;;;;;;;1.40;0.80;;;19.10;58.40;;;;;;5096274;28;20524;-82
2024/02/25 04:19:44;;;;;;;1.60;0.70;;;19.10;58.40;;;;;;5096151;28;20536;-80
2024/02/25 04:22:13;;;;;;;1.40;0.70;;;19.10;58.40;;;;;;5095856;28;20438;-81
2024/02/25 04:24:39;;;;;;;1.40;0.77;;;19.10;58.30;;;;;;5095951;28;20439;-80
2024/02/25 04:27:06;;;;;;;1.93;0.70;;;19.10;58.30;;;;;;5095900;28;20439;-79
2024/02/25 04:29:33;;;;;;;1.40;0.73;;;19.10;58.40;;;;;;5096130;28;20431;-85
2024/02/25 04:32:00;;;;;;;1.37;0.70;;;19.20;58.40;;;;;;5095789;28;20493;-80
2024/02/25 04:34:27;;;;;;;1.50;0.80;;;19.10;58.40;;;;;;5095800;28;20514;-79
2024/02/25 04:36:53;;;;;;;1.60;0.90;;;19.10;58.30;;;;;;5094942;28;20983;-80
2024/02/25 04:39:22;;;;;;;1.40;0.80;;;19.10;58.30;;;;;;5095889;28;20432;-80
2024/02/25 04:41:49;;;;;;;1.67;0.80;;;19.10;58.40;;;;;;5095787;28;20432;-88
2024/02/25 04:44:16;;;;;;;1.47;0.80;;;19.10;58.40;;;;;;5095779;28;20496;-80
2024/02/25 04:46:45;;;;;;;1.60;0.80;;;19.10;58.40;;;;;;5095637;28;20439;-80
2024/02/25 04:49:13;;;;;;;1.60;0.90;;;19.10;58.40;;;;;;5095447;28;20497;-80
2024/02/25 04:51:39;;;;;;;1.40;0.70;;;19.10;59.00;;;;;;5095611;28;20475;-80
2024/02/25 04:54:06;;;;;;;2.53;1.00;;;19.00;58.30;;;;;;5095590;28;20470;-81
2024/02/25 04:56:35;;;;;;;1.40;0.70;;;19.10;58.40;;;;;;5095558;28;20436;-80
2024/02/25 04:59:02;;;;;;;1.40;0.70;;;19.10;59.00;;;;;;5095466;28;20439;-80
2024/02/25 05:01:29;;;;;;;2.00;1.00;;;19.00;58.30;;;;;;5095111;28;20815;-83
2024/02/25 05:03:55;;;;;;;1.63;0.80;;;19.10;58.30;;;;;;5095185;28;20435;-80
2024/02/25 05:06:23;;;;;;;1.40;0.70;;;19.10;58.40;;;;;;5095233;28;20439;-80
2024/02/25 05:08:49;;;;;;;1.40;0.70;;;19.00;58.30;;;;;;5095146;28;20432;-80
2024/02/25 05:11:16;;;;;;;1.40;0.70;;;19.00;58.30;;;;;;5094985;28;20490;-89
2024/02/25 05:13:45;;;;;;;1.30;0.60;;;19.00;58.30;;;;;;5095144;28;20440;-80
2024/02/25 05:16:12;;;;;;;1.50;0.90;;;19.00;58.30;;;;;;5095123;28;20440;-80
2024/02/25 05:18:40;;;;;;;1.90;0.70;;;19.00;58.30;;;;;;5094888;28;20435;-80
2024/02/25 05:21:07;;;;;;;1.30;0.63;;;19.00;58.30;;;;;;5095103;28;20443;-80
2024/02/25 05:23:34;;;;;;;1.47;0.70;;;19.00;58.30;;;;;;5094773;28;20438;-80
2024/02/25 05:26:01;;;;;;;1.40;0.80;;;19.00;58.30;;;;;;5094863;28;20467;-83
2024/02/25 05:28:28;;;;;;;1.50;0.80;;;19.00;58.30;;;;;;5095005;28;20428;-89
2024/02/25 05:30:56;;;;;;;1.40;0.70;;;19.00;58.30;;;;;;5094535;28;20525;-80
2024/02/25 05:33:23;;;;;;;1.40;0.80;;;19.00;58.30;;;;;;5094693;28;20432;-80
2024/02/25 05:35:50;;;;;;;1.50;0.80;;;19.00;58.30;;;;;;5094673;28;20439;-79
2024/02/25 05:38:17;;;;;;;1.40;0.83;;;19.00;58.30;;;;;;5094450;28;20806;-80
2024/02/25 05:40:43;;;;;;;1.30;0.70;;;19.00;58.30;;;;;;5094850;28;20443;-80
2024/02/25 05:43:11;;;;;;;1.37;0.60;;;19.00;58.90;;;;;;5094320;28;20957;-82
2024/02/25 05:45:39;;;;;;;1.30;0.70;;;19.00;58.30;;;;;;5094587;28;20941;-81
2024/02/25 05:48:08;;;;;;;1.40;0.70;;;19.00;58.30;;;;;;5094494;28;20446;-80
2024/02/25 05:50:35;;;;;;;1.40;0.70;;;19.00;58.30;;;;;;5094460;28;20514;-79
2024/02/25 05:53:02;;;;;;;1.40;0.70;;;19.00;58.30;;;;;;5094360;28;20483;-80
2024/02/25 05:55:29;;;;;;;1.40;0.80;;;19.00;58.30;;;;;;5094475;28;20431;-80
2024/02/25 05:57:56;;;;;;;1.93;0.70;;;19.00;58.30;;;;;;5094095;28;20446;-80
2024/02/25 06:00:23;;;;;;;1.83;0.80;;;19.00;58.30;;;;;;5102658;28;20440;-82
2024/02/25 06:02:49;;;;;;;1.40;0.70;;;19.10;58.40;;;;;;5099701;28;20462;-80
2024/02/25 06:05:18;;;;;;;1.50;0.90;;;19.00;58.30;;;;;;5094482;28;20523;-80
2024/02/25 06:07:46;;;;;;;1.97;0.80;;;19.00;58.40;;;;;;5094057;28;20442;-80
2024/02/25 06:10:13;;;;;;;1.40;0.77;;;19.00;58.30;;;;;;5093946;28;20794;-80
2024/02/25 06:12:40;;;;;;;1.50;0.80;;;19.00;58.30;;;;;;5093778;28;20489;-80
2024/02/25 06:15:11;;;;;;;1.40;0.70;;;19.00;58.30;;;;;;5094038;28;20527;-80
2024/02/25 06:17:37;;;;;;;1.60;0.80;;;19.00;58.40;;;;;;5094084;28;20447;-79
2024/02/25 06:20:06;;;;;;;1.40;0.70;;;19.00;58.30;;;;;;5094027;28;20526;-79
2024/02/25 06:22:35;;;;;;;1.70;0.70;;;19.00;58.30;;;;;;5093799;28;20439;-79
2024/02/25 06:25:02;;;;;;;1.40;0.80;;;19.00;58.30;;;;;;5093653;28;20442;-80
2024/02/25 06:27:29;;;;;;;1.60;0.80;;;19.00;58.30;;;;;;5093657;28;20485;-80
2024/02/25 06:29:56;;;;;;;1.40;0.80;;;19.00;58.30;;;;;;5093498;28;20522;-80
2024/02/25 06:32:23;;;;;;;1.40;0.70;;;19.00;58.30;;;;;;5093376;28;20997;-84
2024/02/25 06:34:49;;;;;;;1.40;0.80;;;19.00;58.30;;;;;;5094005;28;20442;-83
2024/02/25 06:37:16;;;;;;;1.37;0.67;;;19.00;58.30;;;;;;5093532;28;20440;-81
2024/02/25 06:39:44;;;;;;;1.40;0.70;;;19.00;58.90;;;;;;5093629;28;20439;-84
2024/02/25 06:42:11;;;;;;;1.40;0.70;;;19.00;58.30;;;;;;5093643;28;20436;-80
2024/02/25 06:44:42;;;;;;;1.70;0.70;;;19.00;58.30;;;;;;5093810;28;20435;-80
2024/02/25 06:47:09;;;;;;;1.40;0.70;;;19.00;58.30;;;;;;5093679;28;20531;-81
2024/02/25 06:49:36;;;;;;;1.40;0.80;;;18.90;58.20;;;;;;5093763;28;20793;-80
2024/02/25 06:52:04;;;;;;;1.40;0.70;;;19.00;58.30;;;;;;5093538;28;20491;-80
2024/02/25 06:54:31;;;;;;;1.40;0.80;;;19.00;58.30;;;;;;5093459;28;20558;-80
2024/02/25 06:57:00;;;;;;;1.60;0.80;;;19.00;58.30;;;;;;5093891;28;20922;-80
2024/02/25 06:59:26;;;;;;;1.40;0.70;;;19.00;58.30;;;;;;5093712;28;20438;-80
2024/02/25 07:01:53;;;;;;;1.40;0.70;;;19.00;58.30;;;;;;5094189;28;20460;-90
2024/02/25 07:04:20;;;;;;;1.40;0.70;;;19.00;58.40;;;;;;5094598;28;20442;-80
2024/02/25 07:06:47;;;;;;;2.50;0.90;;;19.00;58.30;;;;;;5094228;28;20463;-80
2024/02/25 07:09:14;;;;;;;1.40;0.60;;;18.90;58.80;;;;;;5093311;28;20446;-81
2024/02/25 07:11:42;;;;;;;1.70;0.80;;;19.00;58.30;;;;;;5093412;28;20475;-81
2024/02/25 07:14:10;;;;;;;1.40;0.70;;;19.00;58.30;;;;;;5093512;28;20432;-84
2024/02/25 07:16:42;;;;;;;1.40;0.80;;;18.90;58.30;;;;;;5093325;28;20438;-82
2024/02/25 07:19:09;;;;;;;1.40;0.70;;;18.90;58.30;;;;;;5093200;28;20436;-81
2024/02/25 07:21:36;;;;;;;1.70;0.80;;;18.90;58.30;;;;;;5092952;28;20434;-81
2024/02/25 07:24:02;;;;;;;1.30;0.60;;;18.90;58.30;;;;;;5093063;28;20436;-81
2024/02/25 07:26:29;;;;;;;1.40;0.67;;;18.90;58.30;;;;;;5093088;28;20440;-81
2024/02/25 07:28:56;;;;;;;1.30;0.60;;;19.00;58.30;;;;;;5093354;28;20941;-81
2024/02/25 07:31:24;;;;;;;1.30;0.70;;;18.90;58.30;;;;;;5092598;28;20554;-82
2024/02/25 07:33:51;;;;;;;1.40;0.73;;;19.00;58.30;;;;;;5093164;28;20438;-81
2024/02/25 07:36:18;;;;;;;1.40;0.80;;;18.90;58.20;;;;;;5093004;28;20530;-81
2024/02/25 07:38:45;;;;;;;2.30;0.80;;;18.90;58.20;;;;;;5093021;28;20438;-81
2024/02/25 07:41:12;;;;;;;1.37;0.70;;;18.90;58.30;;;;;;5093382;28;20936;-82
2024/02/25 07:43:40;;;;;;;1.40;0.80;;;18.90;58.30;;;;;;5093008;28;20447;-81
2024/02/25 07:46:07;;;;;;;1.40;0.70;;;18.90;58.30;;;;;;5093062;28;20993;-81
2024/02/25 07:48:35;;;;;;;1.60;0.80;;;18.90;58.30;;;;;;5092847;28;20441;-86
2024/02/25 07:51:02;;;;;;;1.40;0.80;;;18.90;58.20;;;;;;5093033;28;20522;-81
2024/02/25 07:53:29;;;;;;;1.50;0.77;;;18.90;58.30;;;;;;5092796;28;20489;-81
2024/02/25 07:55:56;;;;;;;1.40;0.70;;;18.90;58.20;;;;;;5093020;28;20526;-81
2024/02/25 07:58:23;;;;;;;1.40;0.70;;;18.90;58.30;;;;;;5091761;28;20431;-81
2024/02/25 08:00:50;;;;;;;1.50;0.70;;;18.90;58.20;;;;;;5092745;28;20800;-81
2024/02/25 08:03:17;;;;;;;1.50;0.70;;;18.90;58.30;;;;;;5092653;28;20538;-81
2024/02/25 08:05:46;;;;;;;1.40;0.80;;;18.90;58.30;;;;;;5092778;28;20431;-81
2024/02/25 08:08:13;;;;;;;1.40;0.70;;;18.90;58.20;;;;;;5093401;28;20475;-81
2024/02/25 08:10:39;;;;;;;1.40;0.70;;;19.00;58.30;;;;;;5095830;28;20428;-81
2024/02/25 08:13:06;;;;;;;1.43;0.70;;;18.90;58.20;;;;;;5099282;28;20475;-81
2024/02/25 08:15:33;;;;;;;1.40;0.70;;;19.00;58.30;;;;;;5099909;28;20497;-80
2024/02/25 08:18:00;;;;;;;1.40;0.73;;;19.00;58.30;;;;;;5097522;28;20800;-82
2024/02/25 08:20:27;;;;;;;1.40;0.70;;;18.90;58.30;;;;;;5096272;28;20431;-81
2024/02/25 08:22:55;;;;;;;1.33;0.60;;;19.00;58.30;;;;;;5095916;28;20446;-81
2024/02/25 08:25:22;;;;;;;1.50;0.90;;;19.00;58.90;;;;;;5096124;28;20440;-89
2024/02/25 08:27:48;;;;;;;1.50;0.70;;;19.00;58.30;;;;;;5095905;28;20945;-81
2024/02/25 08:30:15;;;;;;;1.53;0.77;;;18.90;58.20;;;;;;5095849;28;20473;-81
2024/02/25 08:32:42;;;;;;;1.40;0.73;;;19.00;58.30;;;;;;5095847;28;20517;-81
2024/02/25 08:35:11;;;;;;;1.50;0.70;;;18.90;58.20;;;;;;5095897;28;20883;-81
2024/02/25 08:37:38;;;;;;;1.40;0.70;;;19.00;58.30;;;;;;5095914;28;20519;-81
2024/02/25 08:40:08;;;;;;;1.30;0.60;;;19.00;58.90;;;;;;5095993;28;20538;-81
2024/02/25 08:42:35;;;;;;;1.40;0.80;;;18.90;58.20;;;;;;5095987;28;20785;-81
2024/02/25 08:45:02;;;;;;;1.40;0.70;;;18.90;58.20;;;;;;5095659;28;20443;-80
2024/02/25 08:47:29;;;;;;;1.40;0.80;;;19.00;58.30;;;;;;5095608;28;20915;-81
2024/02/25 08:49:57;;;;;;;1.40;0.80;;;19.00;58.30;;;;;;5095929;28;20438;-87
2024/02/25 08:52:24;;;;;;;1.70;0.93;;;19.00;58.30;;;;;;5095315;28;20989;-80
2024/02/25 08:54:51;;;;;;;1.30;0.70;;;19.00;58.30;;;;;;5095652;28;21051;-80
2024/02/25 08:57:20;;;;;;;1.43;0.70;;;19.00;58.30;;;;;;5097999;28;20431;-78
2024/02/25 08:59:47;;;;;;;1.80;0.80;;;18.90;58.20;;;;;;5104172;28;20957;-80
2024/02/25 09:02:14;;;;;;;1.40;0.80;;;19.00;58.30;;;;;;5100735;28;20455;-81
2024/02/25 09:04:42;;;;;;;1.40;0.70;;;19.00;58.30;;;;;;5095151;28;20435;-80
2024/02/25 09:07:09;;;;;;;1.47;0.77;;;19.00;58.30;;;;;;5095183;28;20877;-80
2024/02/25 09:09:35;;;;;;;1.40;0.70;;;18.90;58.30;;;;;;5095258;28;20796;-80
2024/02/25 09:12:02;;;;;;;1.40;0.70;;;18.90;58.30;;;;;;5095163;28;20428;-81
2024/02/25 09:14:30;;;;;;;1.60;0.80;;;18.90;58.30;;;;;;5095355;28;20462;-81
2024/02/25 09:16:57;;;;;;;1.90;0.80;;;19.00;58.30;;;;;;5094998;28;20438;-80
2024/02/25 09:19:24;;;;;;;1.37;0.70;;;19.00;58.30;;;;;;5095112;28;21050;-81
2024/02/25 09:21:51;;;;;;;1.40;0.80;;;19.00;58.30;;;;;;5094923;28;20515;-89
2024/02/25 09:24:18;;;;;;;1.50;0.70;;;19.10;58.30;;;;;;5094648;28;20794;-80
2024/02/25 09:26:46;;;;;;;1.40;0.70;;;19.00;58.20;;;;;;5094788;28;20484;-80
2024/02/25 09:29:13;;;;;;;1.40;0.70;;;19.00;58.20;;;;;;5094568;28;20490;-80
2024/02/25 09:31:41;;;;;;;1.40;0.73;;;19.00;58.20;;;;;;5094413;28;20476;-80
2024/02/25 09:34:11;;;;;;;1.80;0.70;;;19.00;58.20;;;;;;5094497;28;20552;-80
2024/02/25 09:36:37;;;;;;;1.40;0.70;;;19.10;58.30;;;;;;5094538;28;20436;-80
2024/02/25 09:39:04;;;;;;;1.40;0.70;;;19.00;58.10;;;;;;5094547;28;20841;-80
2024/02/25 09:41:35;;;;;;;1.50;0.70;;;19.10;58.20;;;;;;5094362;28;20428;-80
2024/02/25 09:44:03;;;;;;;1.40;0.70;;;19.10;58.20;;;;;;5094762;28;20439;-90
2024/02/25 09:46:32;;;;;;;1.57;0.73;;;19.10;58.10;;;;;;5094503;28;21017;-80
2024/02/25 09:49:03;;;;;;;1.30;0.70;;;19.10;58.10;;;;;;5094207;28;20444;-80
2024/02/25 09:51:32;;;;;;;1.40;0.70;;;19.10;58.10;;;;;;5094804;28;20927;-81
2024/02/25 09:54:01;;;;;;;1.50;0.70;;;19.10;58.10;;;;;;5094439;28;20495;-80
2024/02/25 09:56:30;;;;;;;1.50;0.80;;;19.20;58.20;;;;;;5094332;28;20796;-86
2024/02/25 09:58:56;;;;;;;1.40;0.80;;;19.10;58.20;;;;;;5094212;28;20448;-80
2024/02/25 10:01:25;;;;;;;1.37;0.63;;;19.10;58.20;;;;;;5093970;28;20462;-81
2024/02/25 10:03:52;;;;;;;1.37;0.63;;;19.10;58.20;;;;;;5094123;28;20465;-81
2024/02/25 10:06:20;;;;;;;1.47;0.77;;;19.10;58.20;;;;;;5094180;28;20776;-81
2024/02/25 10:08:48;;;;;;;1.50;0.70;;;19.10;58.30;;;;;;5094340;28;20446;-81
2024/02/25 10:11:15;;;;;;;1.50;0.87;;;19.10;58.20;;;;;;5094174;28;20444;-80
2024/02/25 10:13:43;;;;;;;1.40;0.60;;;19.10;58.20;;;;;;5093859;28;20483;-87
2024/02/25 10:16:16;;;;;;;1.30;0.70;;;19.20;58.20;;;;;;5093989;28;20440;-86
2024/02/25 10:18:43;;;;;;;1.40;0.70;;;19.20;58.20;;;;;;5093851;28;20439;-80
2024/02/25 10:21:10;;;;;;;1.50;0.80;;;19.10;58.20;;;;;;5093885;28;20511;-80
2024/02/25 10:23:39;;;;;;;1.30;0.60;;;19.20;58.30;;;;;;5093898;28;21005;-81
2024/02/25 10:26:14;;;;;;;1.40;0.70;;;19.10;58.20;;;;;;5093872;28;20432;-83
2024/02/25 10:28:42;;;;;;;1.50;0.70;;;19.20;58.30;;;;;;5093570;28;20438;-81
2024/02/25 10:31:10;;;;;;;1.33;0.70;;;19.10;58.20;;;;;;5093439;28;20828;-81
2024/02/25 10:33:38;;;;;;;1.30;0.70;;;19.10;58.20;;;;;;5093602;28;21008;-81
2024/02/25 10:36:09;;;;;;;1.40;0.73;;;19.20;58.20;;;;;;5093094;28;20436;-81
2024/02/25 10:38:41;;;;;;;1.57;0.80;;;19.10;58.20;;;;;;5093541;28;20530;-82
2024/02/25 10:41:10;;;;;;;1.30;0.67;;;19.10;58.20;;;;;;5093551;28;20440;-80
2024/02/25 10:43:37;;;;;;;1.40;0.70;;;19.10;58.20;;;;;;5093390;28;20438;-80
2024/02/25 10:46:19;;;;;;;1.40;0.70;;;19.20;58.30;;;;;;5093491;28;20510;-81
2024/02/25 10:48:47;;;;;;;1.40;0.73;;;19.20;58.40;;;;;;5093530;28;20534;-81
2024/02/25 10:51:15;;;;;;;1.40;0.80;;;19.20;58.40;;;;;;5093422;28;20446;-81
2024/02/25 10:53:43;;;;;;;1.60;0.90;;;19.20;58.40;;;;;;5093243;28;20483;-81
2024/02/25 10:56:15;;;;;;;1.30;0.60;;;19.40;58.50;;;;;;5093460;28;20439;-81
2024/02/25 10:58:42;;;;;;;1.50;0.80;;;19.20;58.30;;;;;;5093189;28;20450;-81
2024/02/25 11:01:10;;;;;;;1.43;0.60;;;19.30;58.40;;;;;;5093270;28;20539;-81
2024/02/25 11:03:38;;;;;;;1.40;0.70;;;19.20;58.30;;;;;;5093074;28;20439;-80
2024/02/25 11:06:07;;;;;;;1.40;0.70;;;19.30;58.30;;;;;;5093380;28;20973;-81
2024/02/25 11:08:35;;;;;;;1.30;0.60;;;19.30;58.40;;;;;;5093261;28;20436;-81
2024/02/25 11:11:09;;;;;;;1.40;0.60;;;19.30;58.40;;;;;;5093450;28;20979;-81
2024/02/25 11:13:42;;;;;;;1.60;0.83;;;19.30;58.30;;;;;;5093104;28;20482;-80
2024/02/25 11:16:09;;;;;;;1.90;0.70;;;19.30;58.20;;;;;;5093175;28;20475;-80
2024/02/25 11:18:43;;;;;;;1.40;0.70;;;19.40;58.30;;;;;;5093021;28;20857;-80
2024/02/25 11:21:11;;;;;;;1.53;0.70;;;19.30;58.30;;;;;;5093154;28;20523;-80
2024/02/25 11:23:46;;;;;;;1.30;0.60;;;19.30;58.30;;;;;;5093269;28;20526;-80
2024/02/25 11:26:39;;;;;;;1.50;0.80;;;19.30;58.40;;;;;;5093182;28;20489;-80
2024/02/25 11:29:19;;;;;;;1.40;0.77;;;19.30;58.20;;;;;;5093221;28;20770;-81
2024/02/25 11:31:51;;;;;;;2.63;0.80;;;19.30;58.30;;;;;;5092917;28;20499;-80
2024/02/25 11:34:20;;;;;;;1.40;0.63;;;19.30;58.30;;;;;;5093153;28;20483;-80
2024/02/25 11:36:52;;;;;;;1.50;0.70;;;19.30;58.40;;;;;;5094810;28;20439;-79
2024/02/25 11:39:21;;;;;;;1.30;0.67;;;19.30;58.90;;;;;;5094081;28;20440;-80
2024/02/25 11:41:51;;;;;;;1.40;0.70;;;19.20;58.30;;;;;;5093331;28;20439;-81
2024/02/25 11:44:18;;;;;;;1.80;0.80;;;19.20;58.30;;;;;;5107676;28;20445;-80
2024/02/25 11:46:45;;;;;;;1.40;0.60;;;19.20;58.30;;;;;;5111778;28;20431;-79
2024/02/25 11:49:15;;;;;;;2.67;0.73;;;19.30;58.40;;;;;;5103859;28;20981;-80
2024/02/25 11:51:44;;;;;;;1.40;0.70;;;19.20;58.30;;;;;;5097105;28;20434;-80
2024/02/25 11:54:12;;;;;;;1.40;0.70;;;19.20;58.40;;;;;;5096802;28;20487;-80
2024/02/25 11:56:39;;;;;;;1.30;0.60;;;19.20;58.40;;;;;;5098791;28;20446;-80
2024/02/25 11:59:09;;;;;;;1.40;0.70;;;19.20;58.40;;;;;;5106576;28;20478;-80
2024/02/25 12:01:37;;;;;;;1.40;0.80;;;19.20;58.30;;;;;;5108192;28;20460;-80
2024/02/25 12:04:05;;;;;;;1.40;0.80;;;19.20;58.50;;;;;;5102510;28;20443;-81
2024/02/25 12:06:34;;;;;;;1.30;0.70;;;19.20;58.40;;;;;;5096455;28;20438;-82
2024/02/25 12:09:01;;;;;;;1.37;0.70;;;19.20;58.40;;;;;;5096850;28;20443;-80
2024/02/25 12:11:28;;;;;;;1.40;0.70;;;19.30;58.50;;;;;;5096644;28;20538;-80
2024/02/25 12:14:02;;;;;;;1.70;0.80;;;19.30;58.50;;;;;;5096108;28;20601;-80
2024/02/25 12:16:31;;;;;;;1.50;0.70;;;19.30;58.50;;;;;;5096823;28;20827;-80
2024/02/25 12:18:58;;;;;;;1.30;0.70;;;19.30;58.50;;;;;;5095938;28;20764;-80
2024/02/25 12:21:26;;;;;;;1.70;0.90;;;19.30;58.40;;;;;;5096221;28;20535;-80
2024/02/25 12:23:56;;;;;;;1.40;0.70;;;19.40;58.50;;;;;;5096012;28;20535;-80
2024/02/25 12:26:23;;;;;;;1.33;0.63;;;19.30;58.40;;;;;;5095832;28;20439;-80
2024/02/25 12:28:50;;;;;;;1.43;0.73;;;19.30;58.40;;;;;;5096021;28;20519;-80
2024/02/25 12:31:17;;;;;;;1.50;0.83;;;19.30;58.40;;;;;;5095725;28;20485;-80
2024/02/25 12:33:47;;;;;;;1.40;0.70;;;19.30;58.40;;;;;;5095630;28;20493;-79
2024/02/25 12:36:15;;;;;;;1.80;0.80;;;19.30;58.40;;;;;;5095955;28;20475;-79
2024/02/25 12:38:49;;;;;;;1.70;0.77;;;19.30;58.40;;;;;;5095834;28;20432;-79
2024/02/25 12:41:16;;;;;;;1.40;0.60;;;19.30;58.40;;;;;;5095751;28;20491;-80
2024/02/25 12:43:44;;;;;;;1.60;0.70;;;19.40;58.40;;;;;;5095561;28;20462;-81
2024/02/25 12:46:11;;;;;;;1.30;0.60;;;19.30;58.30;;;;;;5095571;28;20497;-81
2024/02/25 12:48:38;;;;;;;1.40;0.80;;;19.30;58.90;;;;;;5095536;28;20507;-81
2024/02/25 12:51:06;;;;;;;1.50;0.80;;;19.30;58.40;;;;;;5095489;28;20522;-81